Time;durP1;ratioP1;P1;durP2;ratioP2;P2;SDS_P1;SDS_P2;PMS_P1;PMS_P2;Temp;Humidity;BMP_temperature;BMP_pressure;BME280_temperature;BME280_humidity;BME280_pressure;Samples;Min_cycle;Max_cycle;Signal;HPM_P1;HPM_P2
2023/10/13 00:02:09;;;;;;;13.88;5.93;;;21.30;95.60;;;;;;7391516;19;20006;-77
2023/10/13 00:04:38;;;;;;;16.40;6.20;;;21.30;95.60;;;;;;7381486;19;20011;-77
2023/10/13 00:07:09;;;;;;;13.65;5.38;;;21.30;95.60;;;;;;7378902;19;20013;-76
2023/10/13 00:09:38;;;;;;;21.45;5.95;;;21.30;95.50;;;;;;7379062;19;20007;-75
2023/10/13 00:12:13;;;;;;;17.02;6.13;;;21.30;95.50;;;;;;7398633;19;20006;-76
2023/10/13 00:14:45;;;;;;;12.93;5.78;;;21.30;95.40;;;;;;7376742;19;20013;-77
2023/10/13 00:17:20;;;;;;;16.02;6.70;;;21.30;95.40;;;;;;7378001;19;20007;-77
2023/10/13 00:20:35;;;;;;;18.92;6.57;;;21.30;95.30;;;;;;7376809;19;20003;-76
2023/10/13 00:23:05;;;;;;;12.23;6.13;;;21.30;95.40;;;;;;7385076;19;20007;-76
2023/10/13 00:25:43;;;;;;;12.27;6.05;;;21.30;95.40;;;;;;7381579;19;20013;-75
2023/10/13 00:28:22;;;;;;;21.38;6.00;;;21.30;95.30;;;;;;7378081;19;20079;-76
2023/10/13 00:30:52;;;;;;;18.00;5.85;;;21.20;95.40;;;;;;7378222;19;20643;-76
2023/10/13 00:33:22;;;;;;;14.90;6.25;;;21.30;95.40;;;;;;7399858;19;20035;-77
2023/10/13 00:35:56;;;;;;;13.37;5.93;;;21.20;95.30;;;;;;7376985;19;20421;-77
2023/10/13 00:38:27;;;;;;;16.30;5.60;;;21.20;95.40;;;;;;7377327;19;20702;-77
2023/10/13 00:41:00;;;;;;;17.47;6.13;;;21.20;95.40;;;;;;7377184;19;20483;-77
2023/10/13 00:43:40;;;;;;;21.23;5.32;;;21.20;95.50;;;;;;7377842;19;20418;-77
2023/10/13 00:46:07;;;;;;;21.42;6.45;;;21.20;95.60;;;;;;7375189;19;20649;-77
2023/10/13 00:48:42;;;;;;;21.75;5.95;;;21.20;95.70;;;;;;7377831;19;20098;-77
2023/10/13 00:51:17;;;;;;;18.20;6.03;;;21.20;95.80;;;;;;7398551;19;20332;-78
2023/10/13 00:53:47;;;;;;;22.80;6.38;;;21.20;95.80;;;;;;7377048;19;20010;-77
2023/10/13 00:56:22;;;;;;;28.02;5.45;;;21.20;96.00;;;;;;7377503;19;20013;-77
2023/10/13 00:58:53;;;;;;;17.33;5.32;;;21.20;96.00;;;;;;7378142;19;20054;-77
2023/10/13 01:01:21;;;;;;;18.20;5.43;;;21.20;96.00;;;;;;7378068;19;20035;-77
2023/10/13 01:03:55;;;;;;;28.17;6.15;;;21.20;96.00;;;;;;7378449;19;20020;-77
2023/10/13 01:06:25;;;;;;;13.27;5.70;;;21.20;95.90;;;;;;7398541;19;20062;-78
2023/10/13 01:09:10;;;;;;;19.27;5.90;;;21.30;95.90;;;;;;7376385;19;20003;-78
2023/10/13 01:11:36;;;;;;;19.65;6.30;;;21.20;96.00;;;;;;7377324;19;20031;-78
2023/10/13 01:14:08;;;;;;;21.42;6.50;;;21.20;96.00;;;;;;7375509;19;20019;-77
2023/10/13 01:16:35;;;;;;;19.33;6.13;;;21.20;96.00;;;;;;7375937;19;20010;-76
2023/10/13 01:19:05;;;;;;;15.40;5.43;;;21.20;95.90;;;;;;7375681;19;20003;-77
2023/10/13 01:21:33;;;;;;;25.80;6.30;;;21.20;95.80;;;;;;7389847;19;20007;-77
2023/10/13 01:24:07;;;;;;;28.13;6.72;;;21.20;95.80;;;;;;7399787;19;20098;-77
2023/10/13 01:26:38;;;;;;;17.63;6.50;;;21.20;95.80;;;;;;7376272;19;19999;-77
2023/10/13 01:29:14;;;;;;;20.27;6.07;;;21.20;96.00;;;;;;7375176;19;20095;-76
2023/10/13 01:31:45;;;;;;;23.20;7.93;;;21.20;96.00;;;;;;7375725;19;20006;-77
2023/10/13 01:34:19;;;;;;;24.48;7.60;;;21.30;96.10;;;;;;7376128;19;20010;-77
2023/10/13 01:36:46;;;;;;;32.15;7.97;;;21.30;96.40;;;;;;7375483;19;20042;-76
2023/10/13 01:39:17;;;;;;;30.20;8.10;;;21.30;96.60;;;;;;7396266;19;20003;-77
2023/10/13 01:41:44;;;;;;;25.30;8.35;;;21.30;97.10;;;;;;7378661;19;20010;-77
2023/10/13 01:44:15;;;;;;;28.83;7.93;;;21.40;96.80;;;;;;7382070;19;20017;-76
2023/10/13 01:46:42;;;;;;;23.30;8.63;;;21.40;96.80;;;;;;7383045;19;19999;-77
2023/10/13 01:49:11;;;;;;;23.10;7.90;;;21.40;96.70;;;;;;7382149;19;20003;-77
2023/10/13 01:51:39;;;;;;;32.03;8.80;;;21.40;96.70;;;;;;7383068;19;20007;-77
2023/10/13 01:54:11;;;;;;;33.63;9.10;;;21.40;96.70;;;;;;7403493;19;20010;-77
2023/10/13 01:56:43;;;;;;;21.52;8.02;;;21.40;96.80;;;;;;7381621;19;20073;-77
2023/10/13 01:59:13;;;;;;;24.25;8.70;;;21.40;96.80;;;;;;7382671;19;20623;-77
2023/10/13 02:01:42;;;;;;;25.10;8.60;;;21.40;96.80;;;;;;7383427;19;20007;-77
2023/10/13 02:04:10;;;;;;;28.63;8.55;;;21.50;96.80;;;;;;7398220;19;20013;-77
2023/10/13 02:06:39;;;;;;;25.80;8.55;;;21.40;96.80;;;;;;7405105;19;20014;-78
2023/10/13 02:09:12;;;;;;;37.75;8.35;;;21.40;96.90;;;;;;7424106;19;20007;-77
2023/10/13 02:11:54;;;;;;;27.35;8.52;;;21.50;96.90;;;;;;7392776;19;20275;-77
2023/10/13 02:14:22;;;;;;;;;;;21.50;97.00;;;;;;7384999;19;20232;-77
2023/10/13 02:16:56;;;;;;;28.90;8.57;;;21.50;96.90;;;;;;7385354;19;19938;-78
2023/10/13 02:19:25;;;;;;;35.28;8.88;;;21.50;96.80;;;;;;7381678;19;20003;-78
2023/10/13 02:22:03;;;;;;;23.95;8.35;;;21.50;96.80;;;;;;7380639;19;20031;-77
2023/10/13 02:24:30;;;;;;;29.90;8.60;;;21.50;96.90;;;;;;7407318;19;20329;-77
2023/10/13 02:27:04;;;;;;;36.47;8.38;;;21.50;96.80;;;;;;7381476;19;20003;-76
2023/10/13 02:29:31;;;;;;;21.92;8.38;;;21.50;96.90;;;;;;7379167;19;20006;-77
2023/10/13 02:32:04;;;;;;;24.92;8.55;;;21.50;96.90;;;;;;7380801;19;20231;-77
2023/10/13 02:34:31;;;;;;;34.55;8.82;;;21.50;96.90;;;;;;7379988;19;20027;-78
2023/10/13 02:37:00;;;;;;;24.35;8.70;;;21.50;96.90;;;;;;7383142;19;20087;-78
2023/10/13 02:39:26;;;;;;;31.40;8.32;;;21.50;96.90;;;;;;7404566;19;20006;-78
2023/10/13 02:41:56;;;;;;;23.85;8.82;;;21.50;96.90;;;;;;7379704;19;20003;-78
2023/10/13 02:44:27;;;;;;;24.70;8.43;;;21.50;96.80;;;;;;7381584;19;20230;-78
2023/10/13 02:46:56;;;;;;;26.63;8.35;;;21.50;96.80;;;;;;7381331;19;20006;-78
2023/10/13 02:49:22;;;;;;;28.50;9.40;;;21.50;96.80;;;;;;7382124;19;20019;-77
2023/10/13 02:51:52;;;;;;;43.05;9.10;;;21.40;96.70;;;;;;7380900;19;20010;-77
2023/10/13 02:54:19;;;;;;;26.08;8.32;;;21.40;96.80;;;;;;7403253;19;20015;-78
2023/10/13 02:56:56;;;;;;;24.02;7.78;;;21.40;96.80;;;;;;7390110;19;20006;-77
2023/10/13 02:59:34;;;;;;;23.85;8.60;;;21.30;96.80;;;;;;7390737;19;20006;-77
2023/10/13 03:02:07;;;;;;;39.65;8.93;;;21.30;96.80;;;;;;7381721;19;20090;-77
2023/10/13 03:04:33;;;;;;;26.10;9.15;;;21.30;96.80;;;;;;7381001;19;20398;-76
2023/10/13 03:07:03;;;;;;;29.35;8.95;;;21.30;96.80;;;;;;7381873;19;20007;-77
2023/10/13 03:09:29;;;;;;;32.38;9.10;;;21.30;97.00;;;;;;7401978;19;20025;-76
2023/10/13 03:11:57;;;;;;;25.20;8.73;;;21.20;96.90;;;;;;7379328;19;20003;-77
2023/10/13 03:14:27;;;;;;;29.13;8.30;;;21.20;96.90;;;;;;7378837;19;20002;-78
2023/10/13 03:17:01;;;;;;;22.10;8.70;;;21.20;96.90;;;;;;7379402;19;20011;-77
2023/10/13 03:19:32;;;;;;;24.05;8.48;;;21.20;97.20;;;;;;7378592;19;20010;-77
2023/10/13 03:22:09;;;;;;;27.48;8.27;;;21.10;96.80;;;;;;7378167;19;20082;-77
2023/10/13 03:24:35;;;;;;;24.42;8.50;;;21.10;96.80;;;;;;7381052;19;20014;-77
2023/10/13 03:27:09;;;;;;;26.88;8.70;;;21.10;96.80;;;;;;7399252;19;20014;-77
2023/10/13 03:29:43;;;;;;;23.85;7.70;;;21.10;96.80;;;;;;7378145;19;20011;-77
2023/10/13 03:32:15;;;;;;;27.98;9.07;;;21.10;96.80;;;;;;7379787;19;20006;-77
2023/10/13 03:34:52;;;;;;;24.13;9.07;;;21.10;96.80;;;;;;7381771;19;20073;-77
2023/10/13 03:37:37;;;;;;;24.10;9.02;;;21.10;96.80;;;;;;7380111;19;20268;-77
2023/10/13 03:40:33;;;;;;;25.90;7.57;;;21.10;96.80;;;;;;7378704;19;20041;-77
2023/10/13 03:43:04;;;;;;;24.23;8.52;;;21.10;96.90;;;;;;7377532;19;20006;-77
2023/10/13 03:45:38;;;;;;;27.08;8.75;;;21.10;96.90;;;;;;7400225;19;20014;-77
2023/10/13 03:48:16;;;;;;;29.83;9.30;;;21.10;96.90;;;;;;7378025;19;20007;-77
2023/10/13 03:50:57;;;;;;;29.58;9.02;;;21.10;96.80;;;;;;7377463;19;20011;-77
2023/10/13 03:53:27;;;;;;;30.95;8.80;;;21.10;96.90;;;;;;7378876;19;20015;-77
2023/10/13 03:56:07;;;;;;;28.70;8.25;;;21.10;96.80;;;;;;7380477;19;20265;-77
2023/10/13 03:58:36;;;;;;;27.40;8.48;;;21.10;96.80;;;;;;7379929;19;20028;-78
2023/10/13 04:01:09;;;;;;;22.45;8.52;;;21.10;96.80;;;;;;7380093;19;20327;-77
2023/10/13 04:03:56;;;;;;;26.60;9.02;;;21.10;96.80;;;;;;7377280;19;20010;-77
2023/10/13 04:06:48;;;;;;;33.42;9.52;;;21.10;96.80;;;;;;7399315;19;20005;-77
2023/10/13 04:15:15;;;;;;;26.55;8.73;;;21.00;96.80;;;;;;7391463;19;20014;-77
2023/10/13 04:17:50;;;;;;;27.30;8.95;;;21.10;96.80;;;;;;7394214;19;20003;-77
2023/10/13 04:28:50;;;;;;;30.77;9.05;;;21.00;96.60;;;;;;7378134;19;20003;-77
2023/10/13 04:31:43;;;;;;;20.38;8.00;;;21.00;96.60;;;;;;7378243;19;20015;-77
2023/10/13 04:34:27;;;;;;;25.35;8.32;;;21.00;96.50;;;;;;7378136;19;20015;-78
2023/10/13 04:37:10;;;;;;;18.50;8.40;;;20.90;96.40;;;;;;7377662;19;20093;-78
2023/10/13 04:39:42;;;;;;;26.88;8.98;;;20.90;96.30;;;;;;7375086;19;20013;-77
2023/10/13 04:42:26;;;;;;;20.27;8.25;;;20.90;96.20;;;;;;7395941;19;20027;-77
2023/10/13 04:45:00;;;;;;;23.95;8.75;;;21.00;96.20;;;;;;7376790;19;20039;-77
2023/10/13 04:47:29;;;;;;;27.25;8.77;;;21.00;96.10;;;;;;7376297;19;20015;-77
2023/10/13 04:50:01;;;;;;;30.75;8.02;;;21.00;95.90;;;;;;7376614;19;20365;-77
2023/10/13 04:55:36;;;;;;;37.85;8.38;;;21.00;95.50;;;;;;7374708;19;20014;-77
2023/10/13 04:58:27;;;;;;;22.92;8.68;;;21.10;95.30;;;;;;7376693;19;20011;-77
2023/10/13 05:03:53;;;;;;;26.65;9.15;;;21.10;94.90;;;;;;7373180;19;20017;-77
2023/10/13 05:49:50;;;;;;;28.35;10.43;;;21.20;93.90;;;;;;7373286;19;20018;-77
2023/10/13 05:52:19;;;;;;;19.98;9.98;;;21.20;93.70;;;;;;7375323;19;20010;-77
2023/10/13 06:30:11;;;;;;;;;;;21.00;94.00;;;;;;7382695;19;20013;-78
2023/10/13 06:32:41;;;;;;;21.48;9.02;;;21.00;93.90;;;;;;7384039;19;19915;-79
2023/10/13 06:35:18;;;;;;;24.42;9.95;;;21.00;93.90;;;;;;7385061;19;20023;-78
2023/10/13 06:40:36;;;;;;;17.55;10.75;;;21.00;93.50;;;;;;7383662;19;20014;-76
2023/10/13 06:43:16;;;;;;;15.82;10.38;;;21.00;93.60;;;;;;7383412;19;20010;-80
2023/10/13 06:48:59;;;;;;;21.17;10.10;;;21.00;93.60;;;;;;7387163;19;20011;-79
2023/10/13 06:54:53;;;;;;;23.45;10.35;;;21.10;93.50;;;;;;7282393;19;2004296;-82
2023/10/13 06:57:24;;;;;;;18.20;9.68;;;21.10;93.40;;;;;;7381998;19;20369;-80
2023/10/13 07:00:28;;;;;;;17.27;9.52;;;21.10;93.00;;;;;;7406741;19;20007;-82
2023/10/13 07:06:19;;;;;;;20.23;9.63;;;21.10;92.70;;;;;;7382496;19;20011;-83
2023/10/13 07:24:48;;;;;;;13.88;8.75;;;21.20;91.60;;;;;;7385643;19;20187;-77
2023/10/13 07:27:35;;;;;;;18.20;8.23;;;21.30;91.50;;;;;;7404444;19;20007;-80
2023/10/13 07:33:19;;;;;;;14.07;8.73;;;21.40;91.20;;;;;;7379873;19;20017;-80
2023/10/13 07:39:20;;;;;;;25.15;8.80;;;21.50;90.70;;;;;;7405149;19;19983;-78
2023/10/13 08:27:48;;;;;;;22.02;7.00;;;22.00;87.90;;;;;;7407967;19;20011;-76
2023/10/13 08:33:32;;;;;;;20.25;7.05;;;21.90;87.60;;;;;;7307948;19;2004469;-80
2023/10/13 09:22:37;;;;;;;17.10;6.38;;;22.40;86.60;;;;;;7411232;19;20007;-78
2023/10/13 09:25:36;;;;;;;12.65;6.72;;;22.40;86.20;;;;;;7434570;19;20018;-82
2023/10/13 09:35:05;;;;;;;20.33;7.10;;;22.30;86.40;;;;;;7438107;19;19982;-82
2023/10/13 09:37:37;;;;;;;24.42;7.63;;;22.20;86.00;;;;;;7411295;19;20019;-80
2023/10/13 09:40:24;;;;;;;12.55;6.70;;;22.20;86.60;;;;;;7411250;19;20274;-79
2023/10/13 09:42:51;;;;;;;18.77;7.00;;;22.30;86.30;;;;;;7407772;19;20570;-78
2023/10/13 09:49:04;;;;;;;12.50;5.80;;;22.50;85.80;;;;;;7439256;19;19986;-83
2023/10/13 09:57:24;;;;;;;22.35;6.32;;;22.50;85.00;;;;;;7392336;19;20007;-79
2023/10/13 10:03:14;;;;;;;16.77;7.10;;;22.60;85.00;;;;;;7412568;19;19994;-81
2023/10/13 10:05:41;;;;;;;19.52;6.63;;;22.60;84.30;;;;;;7406274;19;20007;-77
2023/10/13 10:08:12;;;;;;;15.05;6.57;;;22.60;84.30;;;;;;7381551;19;20011;-77
2023/10/13 10:10:52;;;;;;;19.05;6.68;;;22.50;85.10;;;;;;7380058;19;20007;-77
2023/10/13 10:14:00;;;;;;;13.52;6.93;;;22.50;85.00;;;;;;7381594;19;20073;-77
2023/10/13 10:16:46;;;;;;;21.02;7.63;;;22.50;85.00;;;;;;7383280;19;20050;-77
2023/10/13 10:19:15;;;;;;;26.27;6.38;;;22.70;84.90;;;;;;7384466;19;20003;-79
2023/10/13 10:21:52;;;;;;;13.30;6.25;;;22.80;84.70;;;;;;7402040;19;20029;-81
2023/10/13 10:27:43;;;;;;;19.77;6.55;;;22.90;83.80;;;;;;7384382;19;20007;-86
2023/10/13 11:30:40;;;;;;;10.85;6.10;;;23.90;80.70;;;;;;7408222;19;20032;-79
2023/10/13 11:33:11;;;;;;;14.70;6.57;;;23.90;81.20;;;;;;7381219;19;20007;-78
2023/10/13 11:38:29;;;;;;;16.23;5.78;;;24.20;80.00;;;;;;7385405;19;20027;-81
2023/10/13 11:48:53;;;;;;;;;;;;;;;;;;;;;
2023/10/13 11:51:51;;;;;;;13.98;6.07;;;24.60;78.40;;;;;;7357715;19;20598;-82
2023/10/13 12:07:45;;;;;;;16.27;6.20;;;24.30;78.50;;;;;;7405990;19;19983;-83
2023/10/13 12:13:57;;;;;;;19.98;5.88;;;24.30;79.50;;;;;;7374628;19;20011;-76
2023/10/13 12:16:34;;;;;;;11.90;6.13;;;24.40;79.20;;;;;;7371722;19;20426;-77
2023/10/13 12:19:05;;;;;;;15.85;5.90;;;24.40;79.00;;;;;;7374546;19;20273;-76
2023/10/13 12:21:37;;;;;;;14.88;6.03;;;24.50;79.40;;;;;;7393189;19;20018;-76
2023/10/13 12:24:11;;;;;;;17.73;5.93;;;24.50;79.30;;;;;;7395589;19;20025;-75
2023/10/13 12:26:42;;;;;;;15.18;5.95;;;24.60;79.40;;;;;;7370396;19;20007;-75
2023/10/13 12:58:18;;;;;;;25.80;5.93;;;25.50;76.20;;;;;;7412934;19;20364;-78
2023/10/13 13:00:55;;;;;;;18.92;6.15;;;25.40;76.60;;;;;;7416130;19;20020;-79
2023/10/13 13:03:44;;;;;;;21.63;6.18;;;25.40;76.60;;;;;;7444881;19;20006;-80
2023/10/13 13:06:24;;;;;;;18.52;6.57;;;25.60;76.40;;;;;;7419200;19;20010;-81
2023/10/13 13:23:21;;;;;;;18.17;5.68;;;25.60;75.40;;;;;;7383870;19;20026;-84
2023/10/13 13:25:59;;;;;;;19.75;6.43;;;25.60;76.30;;;;;;7415127;19;20682;-79
2023/10/13 13:31:47;;;;;;;27.13;6.85;;;25.60;76.40;;;;;;7415162;19;19995;-82
2023/10/13 13:37:47;;;;;;;24.85;6.18;;;25.30;76.60;;;;;;7410082;19;20014;-82
2023/10/13 13:40:22;;;;;;;17.05;6.00;;;25.30;76.40;;;;;;7410458;19;20002;-78
2023/10/13 13:42:51;;;;;;;23.02;6.55;;;25.30;76.60;;;;;;7411593;19;20372;-79
2023/10/13 13:45:27;;;;;;;22.42;5.90;;;25.30;76.50;;;;;;7413424;19;20027;-79
2023/10/13 13:47:56;;;;;;;26.70;5.95;;;25.10;77.20;;;;;;7431947;19;20003;-77
2023/10/13 13:50:28;;;;;;;26.33;6.65;;;25.20;77.00;;;;;;7412820;19;20142;-80
2023/10/13 13:52:59;;;;;;;25.33;6.45;;;25.20;76.90;;;;;;7415090;19;20011;-78
2023/10/13 13:55:39;;;;;;;27.67;6.20;;;25.10;76.50;;;;;;7414192;19;20011;-77
2023/10/13 13:59:17;;;;;;;;;;;;;;;;;;;;;
2023/10/13 14:04:50;;;;;;;19.48;7.03;;;24.70;77.70;;;;;;7418273;19;20020;-80
2023/10/13 14:07:56;;;;;;;29.15;7.10;;;24.50;78.60;;;;;;7414949;19;20406;-83
2023/10/13 14:11:13;;;;;;;26.35;7.22;;;24.70;78.50;;;;;;7384366;19;20308;-79
2023/10/13 14:22:24;;;;;;;28.83;7.72;;;24.60;78.60;;;;;;7341511;19;20014;-80
2023/10/13 14:24:55;;;;;;;28.38;7.38;;;24.60;78.50;;;;;;7389434;19;20002;-79
2023/10/13 14:27:25;;;;;;;26.17;7.63;;;24.60;78.30;;;;;;7387803;19;20007;-79
2023/10/13 14:29:57;;;;;;;25.92;7.82;;;24.50;78.70;;;;;;7408022;19;20011;-79
2023/10/13 14:32:27;;;;;;;21.77;7.55;;;24.50;78.50;;;;;;7384817;19;20006;-77
2023/10/13 14:34:57;;;;;;;28.67;8.27;;;24.50;78.60;;;;;;7386400;19;20036;-78
2023/10/13 14:37:31;;;;;;;23.95;7.47;;;24.40;78.90;;;;;;7387650;19;20002;-79
2023/10/13 14:40:01;;;;;;;25.98;7.53;;;24.50;78.90;;;;;;7385547;19;20006;-78
2023/10/13 14:42:35;;;;;;;24.17;7.70;;;24.20;79.10;;;;;;7388210;19;20010;-80
2023/10/13 14:45:12;;;;;;;34.78;6.95;;;24.40;79.40;;;;;;7404438;19;20007;-78
2023/10/13 14:47:42;;;;;;;28.88;7.07;;;24.50;79.10;;;;;;7386918;19;20011;-82
2023/10/13 14:50:17;;;;;;;23.02;7.70;;;24.40;79.10;;;;;;7388517;19;20011;-81
2023/10/13 14:52:58;;;;;;;35.17;8.35;;;24.30;79.20;;;;;;7389572;19;20030;-82
2023/10/13 14:55:37;;;;;;;;;;;24.30;79.80;;;;;;7413731;19;20010;-84
2023/10/13 15:04:35;;;;;;;35.92;7.63;;;24.30;80.00;;;;;;7385965;19;20026;-80
2023/10/13 15:07:06;;;;;;;22.08;7.47;;;24.40;79.60;;;;;;7386310;19;20031;-79
2023/10/13 15:09:42;;;;;;;34.78;7.47;;;24.50;79.40;;;;;;7388643;19;20018;-79
2023/10/13 15:12:11;;;;;;;21.85;7.72;;;24.60;79.20;;;;;;7408268;19;20002;-79
2023/10/13 15:18:06;;;;;;;33.38;7.63;;;24.60;79.80;;;;;;7383551;19;20003;-79
2023/10/13 15:20:43;;;;;;;25.85;7.38;;;24.30;79.80;;;;;;7359077;19;20018;-79
2023/10/13 15:23:31;;;;;;;36.25;8.38;;;24.50;79.80;;;;;;7407485;19;20352;-82
2023/10/13 15:26:14;;;;;;;26.13;7.22;;;24.50;80.10;;;;;;7386941;19;20422;-81
2023/10/13 15:28:48;;;;;;;25.10;7.75;;;24.50;79.70;;;;;;7385325;19;19999;-78
2023/10/13 15:31:37;;;;;;;24.95;7.18;;;24.60;79.70;;;;;;7393197;19;20037;-80
2023/10/13 15:34:12;;;;;;;26.35;7.30;;;24.60;80.10;;;;;;7395195;19;20011;-79
2023/10/13 15:36:42;;;;;;;26.55;7.13;;;24.40;80.50;;;;;;7385048;19;20002;-79
2023/10/13 15:39:15;;;;;;;49.33;8.38;;;24.50;80.40;;;;;;7407309;19;20010;-79
2023/10/13 15:41:46;;;;;;;30.20;7.82;;;24.40;80.40;;;;;;7387199;19;20282;-80
2023/10/13 15:44:16;;;;;;;42.25;9.10;;;24.50;80.40;;;;;;7386822;19;20003;-79
2023/10/13 15:46:49;;;;;;;28.25;7.57;;;24.50;80.50;;;;;;7386721;19;20036;-79
2023/10/13 15:49:18;;;;;;;31.58;8.18;;;24.60;80.20;;;;;;7386537;19;20013;-79
2023/10/13 15:51:47;;;;;;;25.33;7.38;;;24.70;80.10;;;;;;7385962;19;20006;-80
2023/10/13 15:54:17;;;;;;;22.40;7.28;;;24.60;80.40;;;;;;7408069;19;20013;-81
2023/10/13 15:56:58;;;;;;;28.50;8.20;;;24.30;80.70;;;;;;7389289;19;20035;-83
2023/10/13 16:13:40;;;;;;;31.23;8.48;;;24.20;81.20;;;;;;7318603;19;21282;-79
2023/10/13 16:16:17;;;;;;;25.60;8.10;;;24.20;80.90;;;;;;7387646;19;20010;-80
2023/10/13 16:18:57;;;;;;;35.83;8.95;;;24.30;80.90;;;;;;7385898;19;19996;-81
2023/10/13 16:24:55;;;;;;;32.28;8.38;;;24.10;81.20;;;;;;7304590;19;2004461;-84
2023/10/13 19:32:56;;;;;;;;;;;;;;;;;;;;;
